createdAt,value
2019-04-10T00:01:29.884Z,28.03
2019-04-10T00:03:59.253Z,27.67
2019-04-10T00:06:29.853Z,29.10
2019-04-10T00:08:59.449Z,26.20
2019-04-10T00:11:29.042Z,25.60
2019-04-10T00:13:58.759Z,26.83
2019-04-10T00:16:28.039Z,26.27
2019-04-10T00:18:58.154Z,26.43
2019-04-10T00:21:27.434Z,26.00
2019-04-10T00:23:57.689Z,24.60
2019-04-10T00:26:27.863Z,26.03
2019-04-10T00:28:58.067Z,26.43
2019-04-10T00:31:27.662Z,27.93
2019-04-10T00:33:57.062Z,27.77
2019-04-10T00:36:26.853Z,29.33
2019-04-10T00:38:56.384Z,27.23
2019-04-10T00:41:25.661Z,25.87
2019-04-10T00:43:55.234Z,25.43
2019-04-10T00:46:24.897Z,25.53
2019-04-10T00:48:54.538Z,25.03
2019-04-10T00:51:24.111Z,26.73
2019-04-10T00:53:53.903Z,29.27
2019-04-10T00:56:24.181Z,29.47
2019-04-10T00:58:53.960Z,26.17
2019-04-10T01:01:23.678Z,27.23
2019-04-10T01:03:53.901Z,30.43
2019-04-10T01:06:24.101Z,30.10
2019-04-10T01:08:53.513Z,31.27
2019-04-10T01:11:23.184Z,30.57
2019-04-10T01:13:53.598Z,32.90
2019-04-10T01:16:23.184Z,33.60
2019-04-10T01:18:53.247Z,35.20
2019-04-10T01:21:22.552Z,36.80
2019-04-10T01:23:53.135Z,38.57
2019-04-10T01:26:23.244Z,39.60
2019-04-10T01:28:54.077Z,43.40
2019-04-10T01:31:23.773Z,41.53
2019-04-10T01:33:53.383Z,44.00
2019-04-10T01:36:22.812Z,45.90
2019-04-10T01:38:52.122Z,45.17
2019-04-10T01:41:21.406Z,45.57
2019-04-10T01:43:51.153Z,46.73
2019-04-10T01:46:20.991Z,48.90
2019-04-10T01:48:51.296Z,49.23
2019-04-10T01:51:21.374Z,49.90
2019-04-10T01:53:50.975Z,49.57
2019-04-10T01:56:25.920Z,51.20
2019-04-10T01:58:52.030Z,52.73
2019-04-10T02:01:26.219Z,57.30
2019-04-10T02:03:55.845Z,55.43
2019-04-10T02:06:25.454Z,56.30
2019-04-10T02:08:54.970Z,57.80
2019-04-10T02:11:24.249Z,54.60
2019-04-10T02:13:54.014Z,55.07
2019-04-10T02:16:24.521Z,57.63
2019-04-10T02:18:55.031Z,60.30
2019-04-10T02:21:25.397Z,60.83
2019-04-10T02:23:54.767Z,60.10
2019-04-10T02:26:24.058Z,59.37
2019-04-10T02:28:53.453Z,59.33
2019-04-10T02:31:24.147Z,57.23
2019-04-10T02:33:53.835Z,60.87
2019-04-10T02:36:23.541Z,59.57
2019-04-10T02:39:05.654Z,59.40
2019-04-10T02:41:23.939Z,59.03
2019-04-10T02:43:53.765Z,56.50
2019-04-10T02:46:23.179Z,57.40
2019-04-10T02:48:54.116Z,56.83
2019-04-10T02:51:25.075Z,57.07
2019-04-10T02:53:56.084Z,56.80
2019-04-10T02:56:25.753Z,60.10
2019-04-10T02:58:56.667Z,57.13
2019-04-10T03:01:27.277Z,55.60
2019-04-10T03:03:57.093Z,56.40
2019-04-10T03:06:27.326Z,55.00
2019-04-10T03:09:10.318Z,57.60
2019-04-10T03:11:28.045Z,54.00
2019-04-10T03:13:59.084Z,56.57
2019-04-10T03:16:29.119Z,58.10
2019-04-10T03:18:58.418Z,55.70
2019-04-10T03:21:27.717Z,56.47
2019-04-10T03:23:57.977Z,54.57
2019-04-10T03:26:27.903Z,58.10
2019-04-10T03:28:57.753Z,55.43
2019-04-10T03:31:27.863Z,56.93
2019-04-10T03:34:08.515Z,57.23
2019-04-10T03:36:38.554Z,54.23
2019-04-10T03:39:10.559Z,56.17
2019-04-10T03:41:40.224Z,57.10
2019-04-10T03:44:10.270Z,54.40
2019-04-10T03:46:40.250Z,57.23
2019-04-10T03:49:09.771Z,54.40
2019-04-10T03:51:39.049Z,57.87
2019-04-10T03:54:09.064Z,54.97
2019-04-10T03:56:38.488Z,56.93
2019-04-10T03:59:08.378Z,53.50
2019-04-10T04:01:38.820Z,54.47
2019-04-10T04:04:09.095Z,53.00
2019-04-10T04:06:39.754Z,54.70
2019-04-10T04:09:11.651Z,54.27
2019-04-10T04:11:40.455Z,55.00
2019-04-10T04:14:10.375Z,50.97
2019-04-10T04:16:39.892Z,56.87
2019-04-10T04:19:10.129Z,58.80
2019-04-10T04:21:39.766Z,56.97
2019-04-10T04:24:09.422Z,55.23
2019-04-10T04:26:39.319Z,54.10
2019-04-10T04:29:09.657Z,56.50
2019-04-10T04:31:40.024Z,55.90
2019-04-10T04:34:10.014Z,53.40
2019-04-10T04:36:40.803Z,53.37
2019-04-10T04:39:21.182Z,57.73
2019-04-10T04:41:42.139Z,55.10
2019-04-10T04:44:12.363Z,57.33
2019-04-10T04:46:42.943Z,54.87
2019-04-10T04:49:13.665Z,55.23
2019-04-10T04:51:43.763Z,55.03
2019-04-10T04:54:13.287Z,52.80
2019-04-10T04:56:42.568Z,54.50
2019-04-10T04:59:12.137Z,56.93
2019-04-10T05:01:42.506Z,54.27
2019-04-10T05:04:11.784Z,55.63
2019-04-10T05:06:41.767Z,56.20
2019-04-10T05:09:11.317Z,55.50
2019-04-10T05:11:40.730Z,57.07
2019-04-10T05:14:11.037Z,57.80
2019-04-10T05:16:41.573Z,56.30
2019-04-10T05:19:10.945Z,58.20
2019-04-10T05:21:40.239Z,55.57
2019-04-10T05:24:09.548Z,56.27
2019-04-10T05:26:38.816Z,55.20
2019-04-10T05:29:08.970Z,51.90
2019-04-10T05:31:38.515Z,51.57
2019-04-10T05:34:09.290Z,56.10
2019-04-10T05:36:38.626Z,52.90
2019-04-10T05:39:08.643Z,57.47
2019-04-10T05:41:37.942Z,51.13
2019-04-10T05:44:07.514Z,52.10
2019-04-10T05:46:36.842Z,52.27
2019-04-10T05:49:06.759Z,51.83
2019-04-10T05:51:37.423Z,53.80
2019-04-10T05:54:07.062Z,53.40
2019-04-10T05:56:36.484Z,51.47
2019-04-10T05:59:08.461Z,49.10
2019-04-10T06:01:39.742Z,50.10
2019-04-10T06:04:09.200Z,48.37
2019-04-10T06:06:38.795Z,48.40
2019-04-10T06:09:09.629Z,52.87
2019-04-10T06:11:39.462Z,49.60
2019-04-10T06:14:10.165Z,45.70
2019-04-10T06:16:40.488Z,49.37
2019-04-10T06:19:09.797Z,48.20
2019-04-10T06:21:39.739Z,50.57
2019-04-10T06:24:09.899Z,49.47
2019-04-10T06:26:39.541Z,45.73
2019-04-10T06:29:08.871Z,47.17
2019-04-10T06:31:39.029Z,48.27
2019-04-10T06:34:08.912Z,46.57
2019-04-10T06:36:38.271Z,48.40
2019-04-10T06:39:08.880Z,44.67
2019-04-10T06:41:39.021Z,44.63
2019-04-10T06:44:08.341Z,46.00
2019-04-10T06:46:39.334Z,43.30
2019-04-10T06:49:09.289Z,49.47
2019-04-10T06:51:38.616Z,47.13
2019-04-10T06:54:10.992Z,44.13
2019-04-10T06:56:38.903Z,42.60
2019-04-10T06:59:08.712Z,40.60
2019-04-10T07:01:44.323Z,43.13
2019-04-10T07:04:09.941Z,41.90
2019-04-10T07:06:54.887Z,42.47
2019-04-10T07:09:11.991Z,41.67
2019-04-10T07:11:42.638Z,44.87
2019-04-10T07:14:14.323Z,43.20
2019-04-10T07:16:44.255Z,42.47
2019-04-10T07:19:13.925Z,42.83
2019-04-10T07:21:43.606Z,43.77
2019-04-10T07:24:15.033Z,39.33
2019-04-10T07:26:46.579Z,41.20
2019-04-10T07:29:18.733Z,43.03
2019-04-10T07:31:46.661Z,42.23
2019-04-10T07:34:19.981Z,40.53
2019-04-10T07:36:47.038Z,44.40
2019-04-10T07:39:17.345Z,40.60
2019-04-10T07:41:47.327Z,40.90
2019-04-10T07:44:16.920Z,38.43
2019-04-10T07:46:46.628Z,36.57
2019-04-10T07:49:18.294Z,36.07
2019-04-10T07:51:49.035Z,39.67
2019-04-10T07:54:21.254Z,39.10
2019-04-10T07:56:49.617Z,35.57
2019-04-10T07:59:18.894Z,35.00
2019-04-10T08:01:48.183Z,41.40
2019-04-10T08:04:18.242Z,40.20
2019-04-10T08:06:47.709Z,38.43
2019-04-10T08:09:17.068Z,41.87
2019-04-10T08:11:46.860Z,38.97
2019-04-10T08:14:16.858Z,36.30
2019-04-10T08:16:46.169Z,35.77
2019-04-10T08:19:16.448Z,35.00
2019-04-10T08:21:46.458Z,39.37
2019-04-10T08:24:15.898Z,37.60
2019-04-10T08:26:45.203Z,40.40
2019-04-10T08:29:14.460Z,39.73
2019-04-10T08:31:44.248Z,38.07
2019-04-10T08:34:13.610Z,38.70
2019-04-10T08:36:43.635Z,35.73
2019-04-10T08:39:17.297Z,39.33
2019-04-10T08:41:43.927Z,38.80
2019-04-10T08:44:13.569Z,37.37
2019-04-10T08:46:42.862Z,38.00
2019-04-10T08:49:12.221Z,38.23
2019-04-10T08:51:41.626Z,39.37
2019-04-10T08:54:12.001Z,36.23
2019-04-10T08:56:41.335Z,36.67
2019-04-10T08:59:11.719Z,37.20
2019-04-10T09:01:41.759Z,41.43
2019-04-10T09:04:11.058Z,36.23
2019-04-10T09:06:40.334Z,38.03
2019-04-10T09:09:09.818Z,39.00
2019-04-10T09:11:39.039Z,35.30
2019-04-10T09:14:08.648Z,37.40
2019-04-10T09:16:38.561Z,36.33
2019-04-10T09:19:07.886Z,37.30
2019-04-10T09:21:37.167Z,36.33
2019-04-10T09:24:06.454Z,37.00
2019-04-10T09:26:36.179Z,38.20
2019-04-10T09:29:06.624Z,38.20
2019-04-10T09:31:36.047Z,37.63
2019-04-10T09:34:05.906Z,35.83
2019-04-10T09:36:35.517Z,34.13
2019-04-10T09:39:07.418Z,34.80
2019-04-10T09:41:36.630Z,37.40
2019-04-10T09:44:06.632Z,37.57
2019-04-10T09:46:35.943Z,33.63
2019-04-10T09:49:05.569Z,37.03
2019-04-10T09:51:36.166Z,34.83
2019-04-10T09:54:05.649Z,36.57
2019-04-10T09:56:34.934Z,34.60
2019-04-10T09:59:05.364Z,38.27
2019-04-10T10:01:35.579Z,38.10
2019-04-10T10:04:05.050Z,34.80
2019-04-10T10:06:36.543Z,35.30
2019-04-10T10:09:08.389Z,37.10
2019-04-10T10:11:38.618Z,37.37
2019-04-10T10:14:08.265Z,37.50
2019-04-10T10:16:37.590Z,36.50
2019-04-10T10:19:07.850Z,36.80
2019-04-10T10:21:37.235Z,37.23
2019-04-10T10:24:06.637Z,35.73
2019-04-10T10:26:36.496Z,36.03
2019-04-10T10:29:05.901Z,34.73
2019-04-10T10:31:36.060Z,33.30
2019-04-10T10:34:06.057Z,37.27
2019-04-10T10:36:41.093Z,36.43
2019-04-10T10:39:13.080Z,34.80
2019-04-10T10:41:42.645Z,36.90
2019-04-10T10:44:13.045Z,35.50
2019-04-10T10:46:42.358Z,36.60
2019-04-10T10:49:12.523Z,35.43
2019-04-10T10:51:42.598Z,34.87
2019-04-10T10:54:12.607Z,35.43
2019-04-10T10:56:42.618Z,38.40
2019-04-10T10:59:11.994Z,36.10
2019-04-10T11:01:42.154Z,36.90
2019-04-10T11:04:12.943Z,33.60
2019-04-10T11:09:15.908Z,33.20
2019-04-10T11:11:45.476Z,34.50
2019-04-10T11:14:15.104Z,35.50
2019-04-10T11:16:45.498Z,35.10
2019-04-10T11:19:15.371Z,34.03
2019-04-10T11:21:45.107Z,33.50
2019-04-10T11:24:15.034Z,37.10
2019-04-10T11:26:44.581Z,32.97
2019-04-10T11:29:14.378Z,34.70
2019-04-10T11:31:45.770Z,36.00
2019-04-10T11:34:16.582Z,32.33
2019-04-10T11:36:46.203Z,34.77
2019-04-10T11:39:22.587Z,35.90
2019-04-10T11:41:49.956Z,34.73
2019-04-10T11:44:20.310Z,30.57
2019-04-10T11:46:49.473Z,33.90
2019-04-10T11:49:20.141Z,33.17
2019-04-10T11:51:52.980Z,34.53
2019-04-10T11:54:26.418Z,35.10
2019-04-10T11:56:56.131Z,35.57
2019-04-10T11:59:26.208Z,34.30
2019-04-10T12:02:01.002Z,33.83
2019-04-10T12:04:29.538Z,32.10
2019-04-10T12:07:00.188Z,31.00
2019-04-10T12:10:49.517Z,28.97
2019-04-10T12:12:00.178Z,27.57
2019-04-10T12:14:29.984Z,29.10
2019-04-10T12:16:59.567Z,27.43
2019-04-10T12:19:29.094Z,28.90
2019-04-10T12:21:58.681Z,27.90
2019-04-10T12:24:28.209Z,28.20
2019-04-10T12:26:58.337Z,29.57
2019-04-10T12:29:28.965Z,28.33
2019-04-10T12:31:58.611Z,29.90
2019-04-10T12:34:28.534Z,29.37
2019-04-10T12:36:58.751Z,26.17
2019-04-10T12:39:28.061Z,28.97
2019-04-10T12:41:57.555Z,28.10
2019-04-10T12:44:26.871Z,25.20
2019-04-10T12:46:56.144Z,26.43
2019-04-10T12:49:25.600Z,28.40
2019-04-10T12:51:54.889Z,26.37
2019-04-10T12:54:24.497Z,26.40
2019-04-10T12:56:54.729Z,26.33
2019-04-10T12:59:24.037Z,26.00
2019-04-10T13:01:54.099Z,24.30
2019-04-10T13:04:24.720Z,22.97
2019-04-10T13:06:54.817Z,23.73
2019-04-10T13:09:24.282Z,24.37
2019-04-10T13:11:53.557Z,26.60
2019-04-10T13:14:22.835Z,25.50
2019-04-10T13:16:52.234Z,25.67
2019-04-10T13:19:21.499Z,27.13
2019-04-10T13:21:51.670Z,26.63
2019-04-10T13:24:21.532Z,23.70
2019-04-10T13:26:50.975Z,25.90
2019-04-10T13:29:21.171Z,22.10
2019-04-10T13:31:51.608Z,22.97
2019-04-10T13:34:21.520Z,23.97
2019-04-10T13:36:51.606Z,22.10
2019-04-10T13:39:22.405Z,21.83
2019-04-10T13:41:52.555Z,21.70
2019-04-10T13:44:22.412Z,21.90
2019-04-10T13:46:51.949Z,21.30
2019-04-10T13:49:21.982Z,22.43
2019-04-10T13:51:51.875Z,21.00
2019-04-10T13:54:21.205Z,22.90
2019-04-10T13:56:50.945Z,22.07
2019-04-10T13:59:20.753Z,21.30
2019-04-10T14:01:50.567Z,21.27
2019-04-10T14:04:20.086Z,21.30
2019-04-10T14:06:49.678Z,21.00
2019-04-10T14:09:34.358Z,21.73
2019-04-10T14:11:51.297Z,20.73
2019-04-10T14:14:20.965Z,20.57
2019-04-10T14:16:50.569Z,18.90
2019-04-10T14:19:19.853Z,19.20
2019-04-10T14:21:49.245Z,20.70
2019-04-10T14:24:19.978Z,19.50
2019-04-10T14:27:06.202Z,18.67
2019-04-10T14:29:35.730Z,19.07
2019-04-10T14:32:08.915Z,19.20
2019-04-10T14:34:38.811Z,18.30
2019-04-10T14:37:09.783Z,18.17
2019-04-10T14:39:39.581Z,19.00
2019-04-10T14:42:10.581Z,18.60
2019-04-10T14:44:41.033Z,18.10
2019-04-10T14:47:11.425Z,17.37
2019-04-10T14:49:41.488Z,20.17
2019-04-10T14:52:10.808Z,18.07
2019-04-10T14:54:40.053Z,17.80
2019-04-10T14:57:10.523Z,18.20
2019-04-10T14:59:40.098Z,18.57
2019-04-10T15:02:10.550Z,20.07
2019-04-10T15:04:39.936Z,18.63
2019-04-10T15:07:10.163Z,17.30
2019-04-10T15:09:39.500Z,19.10
2019-04-10T15:12:10.050Z,18.40
2019-04-10T15:14:39.632Z,19.20
2019-04-10T15:17:09.452Z,18.97
2019-04-10T15:19:39.075Z,20.00
2019-04-10T15:22:09.476Z,18.63
2019-04-10T15:24:39.730Z,18.80
2019-04-10T15:27:09.282Z,18.77
2019-04-10T15:29:38.677Z,19.10
2019-04-10T15:32:08.455Z,18.80
2019-04-10T15:34:37.812Z,20.20
2019-04-10T15:37:07.099Z,19.83
2019-04-10T15:39:39.891Z,19.47
2019-04-10T15:42:07.905Z,19.73
2019-04-10T15:44:38.284Z,18.43
2019-04-10T15:47:16.200Z,18.70
2019-04-10T15:49:39.402Z,17.40
2019-04-10T15:52:08.700Z,20.03
2019-04-10T15:54:38.242Z,18.90
2019-04-10T15:57:08.675Z,21.20
2019-04-10T15:59:38.638Z,18.80
2019-04-10T16:02:08.107Z,20.63
2019-04-10T16:04:37.389Z,19.53
2019-04-10T16:07:06.998Z,20.10
2019-04-10T16:09:45.432Z,20.60
2019-04-10T16:12:11.861Z,19.03
2019-04-10T16:14:41.144Z,18.80
2019-04-10T16:17:13.112Z,18.80
2019-04-10T16:19:51.216Z,21.20
2019-04-10T16:22:23.403Z,19.60
2019-04-10T16:24:53.373Z,20.50
2019-04-10T16:27:22.902Z,19.77
2019-04-10T16:29:53.107Z,18.80
2019-04-10T16:32:24.429Z,24.10
2019-04-10T16:34:54.641Z,20.70
2019-04-10T16:37:24.325Z,20.83
2019-04-10T16:40:01.729Z,22.27
2019-04-10T16:42:25.133Z,21.13
2019-04-10T16:44:54.406Z,21.33
2019-04-10T16:47:23.688Z,20.03
2019-04-10T16:49:53.265Z,22.80
2019-04-10T16:52:23.130Z,20.97
2019-04-10T16:54:53.435Z,20.80
2019-04-10T16:57:23.114Z,23.23
2019-04-10T16:59:52.903Z,21.90
2019-04-10T17:02:22.530Z,24.73
2019-04-10T17:04:52.216Z,23.20
2019-04-10T17:07:21.762Z,23.17
2019-04-10T17:09:51.572Z,22.93
2019-04-10T17:12:21.946Z,22.93
2019-04-10T17:14:51.599Z,21.37
2019-04-10T17:17:22.120Z,22.37
2019-04-10T17:19:55.506Z,22.57
2019-04-10T17:22:30.877Z,22.30
2019-04-10T17:24:54.020Z,22.17
2019-04-10T17:27:23.654Z,25.40
2019-04-10T17:29:53.475Z,22.37
2019-04-10T17:32:24.484Z,22.53
2019-04-10T17:34:54.896Z,22.50
2019-04-10T17:37:25.502Z,22.50
2019-04-10T17:39:55.667Z,23.10
2019-04-10T17:42:25.373Z,23.10
2019-04-10T17:44:56.186Z,22.43
2019-04-10T17:47:26.958Z,23.57
2019-04-10T17:49:56.320Z,23.73
2019-04-10T17:52:27.027Z,21.10
2019-04-10T17:54:56.428Z,24.23
2019-04-10T17:57:36.302Z,24.93
2019-04-10T17:59:56.701Z,22.53
2019-04-10T18:02:26.358Z,22.57
2019-04-10T18:04:56.051Z,22.27
2019-04-10T18:07:25.437Z,22.00
2019-04-10T18:09:54.722Z,22.47
2019-04-10T18:12:24.352Z,23.20
2019-04-10T18:14:53.960Z,21.47
2019-04-10T18:17:24.857Z,22.73
2019-04-10T18:19:54.663Z,21.47
2019-04-10T18:22:24.711Z,22.00
2019-04-10T18:24:54.339Z,23.60
2019-04-10T18:27:24.599Z,25.33
2019-04-10T18:29:55.189Z,23.13
2019-04-10T18:32:25.508Z,23.60
2019-04-10T18:34:54.860Z,24.83
2019-04-10T18:37:25.555Z,23.60
2019-04-10T18:39:55.008Z,22.30
2019-04-10T18:42:24.712Z,23.70
2019-04-10T18:44:53.998Z,24.83
2019-04-10T18:47:23.280Z,23.70
2019-04-10T18:49:52.568Z,23.90
2019-04-10T18:52:23.347Z,23.23
2019-04-10T18:54:53.998Z,23.93
2019-04-10T18:57:24.049Z,22.93
2019-04-10T19:00:15.249Z,23.10
2019-04-10T19:02:45.818Z,23.03
2019-04-10T19:05:20.105Z,22.97
2019-04-10T19:07:50.251Z,22.90
2019-04-10T19:10:20.056Z,23.97
2019-04-10T19:12:50.719Z,23.80
2019-04-10T19:15:20.430Z,22.97
2019-04-10T19:17:50.945Z,23.50
2019-04-10T19:20:20.556Z,21.77
2019-04-10T19:22:50.669Z,23.63
2019-04-10T19:25:20.989Z,25.10
2019-04-10T19:27:50.705Z,22.77
2019-04-10T19:30:37.385Z,22.90
2019-04-10T19:33:07.992Z,24.27
2019-04-10T19:35:37.622Z,23.23
2019-04-10T19:38:07.356Z,22.53
2019-04-10T19:40:38.686Z,22.43
2019-04-10T19:43:08.415Z,23.00
2019-04-10T19:45:38.001Z,22.23
2019-04-10T19:48:08.710Z,23.37
2019-04-10T19:50:38.441Z,23.03
2019-04-10T19:53:08.999Z,21.90
2019-04-10T19:55:38.623Z,20.63
2019-04-10T19:58:08.082Z,21.27
2019-04-10T20:00:38.741Z,21.73
2019-04-10T20:03:08.319Z,23.07
2019-04-10T20:05:37.927Z,22.30
2019-04-10T20:08:07.639Z,22.07
2019-04-10T20:10:37.419Z,23.40
2019-04-10T20:13:06.972Z,24.00
2019-04-10T20:15:36.361Z,25.23
2019-04-10T20:18:05.652Z,22.10
2019-04-10T20:20:37.487Z,23.70
2019-04-10T20:23:06.953Z,21.70
2019-04-10T20:25:36.728Z,22.97
2019-04-10T20:28:06.868Z,20.43
2019-04-10T20:30:37.021Z,20.20
2019-04-10T20:33:06.797Z,21.50
2019-04-10T20:35:36.395Z,20.90
2019-04-10T20:38:07.107Z,22.80
2019-04-10T20:40:36.741Z,18.80
2019-04-10T20:43:06.881Z,18.47
2019-04-10T20:45:37.948Z,21.60
2019-04-10T20:48:08.557Z,19.20
2019-04-10T20:50:37.860Z,19.87
2019-04-10T20:53:07.515Z,19.13
2019-04-10T20:55:37.651Z,19.10
2019-04-10T20:58:07.030Z,19.40
2019-04-10T21:00:43.041Z,19.33
2019-04-10T21:03:13.517Z,18.63
2019-04-10T21:05:42.922Z,18.57
2019-04-10T21:08:13.645Z,18.27
2019-04-10T21:10:43.016Z,17.57
2019-04-10T21:13:12.972Z,16.90
2019-04-10T21:15:42.367Z,15.70
2019-04-10T21:18:13.118Z,15.13
2019-04-10T21:20:43.200Z,14.87
2019-04-10T21:23:13.133Z,15.10
2019-04-10T21:25:43.541Z,14.33
2019-04-10T21:28:14.094Z,15.57
2019-04-10T21:30:48.723Z,14.33
2019-04-10T21:33:23.076Z,13.57
2019-04-10T21:35:52.607Z,14.50
2019-04-10T21:38:21.974Z,14.00
2019-04-10T21:40:51.787Z,14.80
2019-04-10T21:43:21.762Z,14.37
2019-04-10T21:45:52.334Z,14.37
2019-04-10T21:48:22.408Z,13.90
2019-04-10T21:50:51.827Z,13.50
2019-04-10T21:53:21.945Z,14.10
2019-04-10T21:55:51.585Z,13.57
2019-04-10T21:58:21.996Z,13.10
2019-04-10T22:00:53.268Z,14.37
2019-04-10T22:03:23.284Z,13.63
2019-04-10T22:05:55.302Z,14.40
2019-04-10T22:08:42.468Z,14.13
2019-04-10T22:11:12.814Z,13.80
2019-04-10T22:13:42.378Z,13.83
2019-04-10T22:16:13.627Z,13.90
2019-04-10T22:18:42.850Z,14.30
2019-04-10T22:21:12.554Z,13.87
2019-04-10T22:23:42.718Z,13.00
2019-04-10T22:26:12.025Z,13.13
2019-04-10T22:28:41.382Z,12.40
2019-04-10T22:31:11.668Z,11.93
2019-04-10T22:33:41.018Z,12.17
2019-04-10T22:36:10.838Z,10.70
2019-04-10T22:38:40.173Z,11.30
2019-04-10T22:41:22.937Z,11.27
2019-04-10T22:43:41.068Z,10.43
2019-04-10T22:46:10.948Z,10.67
2019-04-10T22:48:41.636Z,11.43
2019-04-10T22:51:11.283Z,11.47
2019-04-10T22:53:41.691Z,11.87
2019-04-10T22:56:11.355Z,10.07
2019-04-10T22:58:42.450Z,10.93
2019-04-10T23:01:13.147Z,9.80
2019-04-10T23:03:43.180Z,11.10
2019-04-10T23:06:13.282Z,11.07
2019-04-10T23:08:42.661Z,11.93
2019-04-10T23:11:13.109Z,11.43
2019-04-10T23:13:42.555Z,12.43
2019-04-10T23:16:15.377Z,11.17
2019-04-10T23:18:42.939Z,11.00
2019-04-10T23:21:12.374Z,10.30
2019-04-10T23:23:41.569Z,10.60
2019-04-10T23:26:11.103Z,10.90
2019-04-10T23:28:40.503Z,11.00
2019-04-10T23:31:09.784Z,11.33
2019-04-10T23:33:39.911Z,11.20
2019-04-10T23:36:09.712Z,9.87
2019-04-10T23:38:39.603Z,10.23
2019-04-10T23:41:09.449Z,9.90
2019-04-10T23:43:39.804Z,10.20
2019-04-10T23:46:11.219Z,10.83
2019-04-10T23:48:41.215Z,10.03
2019-04-10T23:51:10.652Z,10.00
2019-04-10T23:53:40.453Z,10.10
2019-04-10T23:56:09.770Z,9.50
2019-04-10T23:58:40.233Z,12.10
